Time;durP1;ratioP1;P1;durP2;ratioP2;P2;SDS_P1;SDS_P2;PMS_P1;PMS_P2;Temp;Humidity;BMP_temperature;BMP_pressure;BME280_temperature;BME280_humidity;BME280_pressure;Samples;Min_cycle;Max_cycle;Signal;HPM_P1;HPM_P2
2023/06/19 00:00:27;;;;;;;10.70;7.40;;;;;;;19.94;100.00;100191.94;4974735;28;20023;-66
2023/06/19 00:02:53;;;;;;;11.85;7.50;;;;;;;20.11;100.00;100218.94;4974788;28;20033;-66
2023/06/19 00:05:18;;;;;;;10.35;7.72;;;;;;;20.15;100.00;100217.13;4974687;28;20019;-67
2023/06/19 00:07:44;;;;;;;16.52;8.57;;;;;;;20.18;100.00;100227.59;4974847;28;20058;-66
2023/06/19 00:10:09;;;;;;;10.80;7.72;;;;;;;19.86;100.00;100182.38;4974251;28;20023;-66
2023/06/19 00:12:36;;;;;;;14.30;8.15;;;;;;;20.04;100.00;100212.84;4974226;28;20031;-70
2023/06/19 00:15:02;;;;;;;13.10;8.20;;;;;;;19.75;100.00;100210.38;4969803;28;20039;-67
2023/06/19 00:17:28;;;;;;;13.05;7.38;;;;;;;19.52;100.00;100216.53;4945140;28;20055;-67
2023/06/19 00:19:53;;;;;;;13.48;8.40;;;;;;;19.18;100.00;100208.81;4960967;28;20038;-66
2023/06/19 00:22:19;;;;;;;13.90;8.60;;;;;;;19.00;100.00;100206.25;4955149;28;20090;-67
2023/06/19 00:24:45;;;;;;;11.82;7.95;;;;;;;18.97;100.00;100191.44;4954240;28;20038;-67
2023/06/19 00:27:11;;;;;;;12.63;8.55;;;;;;;18.89;100.00;100191.41;4984191;28;20022;-67
2023/06/19 00:29:36;;;;;;;13.88;9.00;;;;;;;18.88;100.00;100178.34;4975682;28;20106;-67
2023/06/19 00:32:02;;;;;;;14.77;8.80;;;;;;;18.98;100.00;100197.50;4973973;28;20511;-66
2023/06/19 00:34:29;;;;;;;16.20;8.60;;;;;;;18.99;100.00;100202.75;4974142;28;20035;-67
2023/06/19 00:36:56;;;;;;;14.93;8.70;;;;;;;19.03;100.00;100201.03;4974157;28;20066;-67
2023/06/19 00:39:25;;;;;;;14.27;8.60;;;;;;;19.07;100.00;100206.22;4973728;28;20034;-67
2023/06/19 00:41:54;;;;;;;13.07;8.35;;;;;;;19.03;100.00;100194.03;4974094;28;20034;-67
2023/06/19 00:44:20;;;;;;;;;;;;;;;19.10;100.00;100200.09;4954502;28;20031;-67
2023/06/19 00:46:46;;;;;;;11.77;8.55;;;;;;;18.98;100.00;100176.59;4973991;28;19921;-67
2023/06/19 00:49:11;;;;;;;11.63;8.68;;;;;;;19.20;100.00;100209.69;4973734;28;20030;-67
2023/06/19 00:51:38;;;;;;;14.82;9.15;;;;;;;19.15;100.00;100211.47;4973550;28;20034;-66
2023/06/19 00:54:04;;;;;;;14.00;8.40;;;;;;;19.23;100.00;100214.91;4972844;28;20027;-67
2023/06/19 00:56:30;;;;;;;14.05;9.35;;;;;;;19.20;100.00;100201.84;4973405;28;20031;-67
2023/06/19 00:58:56;;;;;;;11.68;9.10;;;;;;;18.99;100.00;100179.22;4973574;28;20027;-67
2023/06/19 01:01:23;;;;;;;14.55;8.82;;;;;;;18.91;100.00;100194.06;4973486;28;20030;-66
2023/06/19 01:03:49;;;;;;;9.85;8.50;;;;;;;18.90;100.00;100210.56;4973257;28;20217;-67
2023/06/19 01:06:24;;;;;;;10.68;8.77;;;;;;;18.87;100.00;100182.69;4973167;28;20065;-67
2023/06/19 01:08:58;;;;;;;12.00;8.73;;;;;;;18.99;100.00;100209.72;4973428;28;20030;-67
2023/06/19 01:11:30;;;;;;;11.45;9.02;;;;;;;19.05;100.00;100209.72;4973225;28;20178;-67
2023/06/19 01:13:59;;;;;;;11.38;9.20;;;;;;;18.97;100.00;100214.09;4973593;28;20027;-66
2023/06/19 01:16:27;;;;;;;12.45;9.05;;;;;;;19.00;100.00;100216.72;4973232;28;20082;-67
2023/06/19 01:18:53;;;;;;;9.95;8.80;;;;;;;18.86;100.00;100204.47;4972956;28;20059;-68
2023/06/19 01:21:19;;;;;;;14.27;9.82;;;;;;;18.95;100.00;100213.22;4972587;28;20029;-69
2023/06/19 01:23:45;;;;;;;12.38;9.27;;;;;;;18.86;100.00;100217.56;4973052;28;20511;-68
2023/06/19 01:26:12;;;;;;;11.88;8.90;;;;;;;18.92;100.00;100221.97;4973096;28;20038;-68
2023/06/19 01:28:40;;;;;;;12.07;9.52;;;;;;;18.90;100.00;100219.34;4972980;28;20031;-68
2023/06/19 01:31:19;;;;;;;13.52;8.73;;;;;;;18.92;100.00;100214.97;4972594;28;20022;-68
2023/06/19 01:33:47;;;;;;;13.32;8.93;;;;;;;18.95;100.00;100221.94;4972794;28;20069;-68
2023/06/19 01:36:14;;;;;;;16.52;9.55;;;;;;;18.78;100.00;100190.56;4973074;28;20027;-68
2023/06/19 01:38:43;;;;;;;11.48;9.20;;;;;;;18.90;100.00;100218.44;4972777;28;20072;-68
2023/06/19 01:41:09;;;;;;;12.27;9.40;;;;;;;18.84;100.00;100213.19;4973022;28;20031;-69
2023/06/19 01:43:36;;;;;;;11.25;9.75;;;;;;;18.93;100.00;100218.47;4972380;28;20034;-69
2023/06/19 01:46:02;;;;;;;10.88;9.48;;;;;;;18.88;100.00;100215.81;4971997;28;20112;-68
2023/06/19 01:48:28;;;;;;;11.75;9.13;;;;;;;18.85;100.00;100218.44;4972603;28;20473;-68
2023/06/19 01:50:53;;;;;;;11.90;8.95;;;;;;;18.84;100.00;100210.59;4972424;28;20039;-68
2023/06/19 01:53:19;;;;;;;13.45;9.77;;;;;;;18.79;100.00;100223.69;4972163;28;20034;-68
2023/06/19 01:55:44;;;;;;;11.85;8.75;;;;;;;18.78;100.00;100219.31;4953775;28;20035;-68
2023/06/19 01:58:09;;;;;;;11.63;9.30;;;;;;;18.72;100.00;100216.72;4972229;28;20424;-69
2023/06/19 02:00:35;;;;;;;15.32;9.95;;;;;;;18.36;100.00;100148.75;4954946;28;20033;-68
2023/06/19 02:03:04;;;;;;;10.75;9.05;;;;;;;18.80;100.00;100214.94;4972440;28;20038;-69
2023/06/19 02:05:30;;;;;;;11.95;9.27;;;;;;;18.79;100.00;100217.56;4972385;28;20026;-69
2023/06/19 02:07:56;;;;;;;15.75;9.60;;;;;;;18.77;100.00;100217.59;4972145;28;20103;-69
2023/06/19 02:10:21;;;;;;;10.30;8.75;;;;;;;18.52;100.00;100178.38;4972417;28;20504;-69
2023/06/19 02:12:47;;;;;;;12.05;9.88;;;;;;;18.74;100.00;100234.16;4971843;28;20401;-69
2023/06/19 02:15:12;;;;;;;11.93;9.70;;;;;;;18.70;100.00;100223.69;4972060;28;20492;-69
2023/06/19 02:17:37;;;;;;;18.58;9.90;;;;;;;18.72;100.00;100228.03;4972119;28;20059;-69
2023/06/19 02:20:08;;;;;;;11.18;9.95;;;;;;;18.75;100.00;100229.78;4972243;28;20034;-69
2023/06/19 02:22:34;;;;;;;10.85;9.48;;;;;;;18.67;100.00;100210.63;4971934;28;20037;-68
2023/06/19 02:24:59;;;;;;;16.20;10.30;;;;;;;18.64;100.00;100202.75;4971775;28;20031;-68
2023/06/19 02:27:24;;;;;;;10.35;9.35;;;;;;;18.82;100.00;100236.75;4971603;28;20066;-68
2023/06/19 02:29:50;;;;;;;12.05;9.77;;;;;;;18.81;100.00;100237.63;4971798;28;20022;-68
2023/06/19 02:32:15;;;;;;;12.70;9.32;;;;;;;18.77;100.00;100228.03;4971832;28;20588;-68
2023/06/19 02:34:40;;;;;;;10.90;9.05;;;;;;;18.90;100.00;100236.72;4971712;28;20081;-68
2023/06/19 02:37:08;;;;;;;11.18;9.02;;;;;;;18.89;100.00;100243.72;4971771;28;20027;-68
2023/06/19 02:39:33;;;;;;;11.60;8.57;;;;;;;18.86;100.00;100246.31;4971567;28;20051;-69
2023/06/19 02:41:59;;;;;;;11.50;9.35;;;;;;;18.89;100.00;100235.88;4954080;28;20031;-69
2023/06/19 02:44:25;;;;;;;11.18;8.95;;;;;;;18.89;100.00;100250.69;4971610;28;20057;-69
2023/06/19 02:46:50;;;;;;;11.90;9.25;;;;;;;18.89;100.00;100251.56;4971469;28;20488;-68
2023/06/19 02:49:16;;;;;;;11.48;8.98;;;;;;;18.85;100.00;100255.03;4971767;28;20027;-68
2023/06/19 02:51:41;;;;;;;11.20;9.15;;;;;;;18.80;100.00;100256.78;4971387;28;20031;-68
2023/06/19 02:54:07;;;;;;;14.35;9.13;;;;;;;18.78;100.00;100249.81;4971509;28;20023;-68
2023/06/19 02:56:32;;;;;;;12.23;9.73;;;;;;;18.79;100.00;100252.47;4971650;28;20030;-68
2023/06/19 02:58:57;;;;;;;10.93;8.73;;;;;;;18.72;100.00;100262.03;4971095;28;20042;-68
2023/06/19 03:01:23;;;;;;;11.77;9.38;;;;;;;18.67;100.00;100262.91;4971230;28;20057;-68
2023/06/19 03:03:49;;;;;;;13.50;9.13;;;;;;;18.73;100.00;100268.16;4971192;28;20408;-68
2023/06/19 03:06:14;;;;;;;14.80;10.43;;;;;;;18.81;100.00;100269.00;4971056;28;20031;-68
2023/06/19 03:08:40;;;;;;;11.55;9.77;;;;;;;18.81;100.00;100276.00;4970637;28;20077;-67
2023/06/19 03:11:05;;;;;;;13.90;9.23;;;;;;;18.75;100.00;100261.16;4954111;28;20030;-68
2023/06/19 03:13:44;;;;;;;13.07;9.35;;;;;;;18.82;100.00;100270.75;4971047;28;20049;-68
2023/06/19 03:16:10;;;;;;;15.80;9.77;;;;;;;18.88;100.00;100257.66;4970967;28;20113;-68
2023/06/19 03:18:35;;;;;;;13.35;9.57;;;;;;;18.85;100.00;100259.41;4970696;28;20492;-68
2023/06/19 03:21:02;;;;;;;12.60;9.05;;;;;;;18.81;100.00;100249.84;4970945;28;20019;-68
2023/06/19 03:23:27;;;;;;;10.85;9.27;;;;;;;18.85;100.00;100248.94;4970942;28;20034;-68
2023/06/19 03:25:53;;;;;;;11.38;9.32;;;;;;;18.79;100.00;100257.69;4971058;28;20027;-68
2023/06/19 03:28:18;;;;;;;10.57;9.02;;;;;;;18.70;100.00;100260.28;4971303;28;20165;-68
2023/06/19 03:30:43;;;;;;;11.57;8.70;;;;;;;18.70;100.00;100257.66;4971195;28;20034;-68
2023/06/19 03:33:09;;;;;;;11.18;9.50;;;;;;;18.69;100.00;100259.44;4971413;28;20540;-68
2023/06/19 03:35:34;;;;;;;10.38;8.98;;;;;;;18.69;100.00;100251.59;4971156;28;20031;-68
2023/06/19 03:38:00;;;;;;;10.43;8.57;;;;;;;18.54;100.00;100221.09;4970917;28;20027;-68
2023/06/19 03:40:25;;;;;;;10.35;8.82;;;;;;;18.87;100.00;100258.53;4970929;28;20473;-68
2023/06/19 03:42:51;;;;;;;10.38;9.00;;;;;;;18.82;100.00;100244.59;4970855;28;20058;-68
2023/06/19 03:45:16;;;;;;;12.73;8.95;;;;;;;18.75;100.00;100246.34;4953637;28;20038;-68
2023/06/19 03:47:41;;;;;;;12.82;9.10;;;;;;;18.84;100.00;100258.56;4971262;28;20035;-67
2023/06/19 03:50:09;;;;;;;11.05;9.15;;;;;;;18.47;100.00;100215.81;4970766;28;20106;-67
2023/06/19 03:52:36;;;;;;;12.50;9.30;;;;;;;18.53;100.00;100224.56;4970806;28;20054;-67
2023/06/19 03:55:02;;;;;;;10.88;9.63;;;;;;;18.59;100.00;100232.41;4970695;28;20031;-68
2023/06/19 03:57:29;;;;;;;11.88;8.98;;;;;;;18.75;100.00;100258.53;4970816;28;20034;-67
2023/06/19 03:59:56;;;;;;;11.05;8.73;;;;;;;18.55;100.00;100237.63;4970636;28;20037;-67
2023/06/19 04:02:22;;;;;;;12.35;9.27;;;;;;;18.69;100.00;100256.81;4970792;28;20022;-68
2023/06/19 04:04:48;;;;;;;11.98;9.15;;;;;;;18.64;100.00;100262.91;4970684;28;20043;-68
2023/06/19 04:07:13;;;;;;;14.30;9.00;;;;;;;18.57;100.00;100246.34;4971004;28;20029;-68
2023/06/19 04:09:39;;;;;;;9.93;8.82;;;;;;;18.56;100.00;100237.63;4970315;28;20031;-68
2023/06/19 04:12:05;;;;;;;10.95;8.90;;;;;;;18.64;100.00;100260.28;4970312;28;20039;-69
2023/06/19 04:14:30;;;;;;;10.77;9.18;;;;;;;18.62;100.00;100264.63;4970755;28;20026;-69
2023/06/19 04:16:55;;;;;;;12.75;9.70;;;;;;;18.74;100.00;100260.28;4970530;28;20069;-68
2023/06/19 04:19:21;;;;;;;14.25;8.88;;;;;;;18.81;100.00;100262.91;4972294;28;20033;-68
2023/06/19 04:21:46;;;;;;;12.70;8.55;;;;;;;18.75;100.00;100263.78;4974352;28;20033;-68
2023/06/19 04:24:12;;;;;;;10.75;8.88;;;;;;;18.72;100.00;100269.00;4974112;28;20027;-68
2023/06/19 04:26:37;;;;;;;11.20;9.60;;;;;;;18.81;100.00;100263.78;4973904;28;20031;-68
2023/06/19 04:29:03;;;;;;;10.60;9.50;;;;;;;18.72;100.00;100232.41;4956804;28;20023;-68
2023/06/19 04:31:30;;;;;;;14.25;9.52;;;;;;;18.82;100.00;100260.28;4974221;28;20097;-69
2023/06/19 04:33:56;;;;;;;9.93;8.85;;;;;;;18.70;100.00;100255.06;4974050;28;20026;-69
2023/06/19 04:36:22;;;;;;;10.77;8.50;;;;;;;18.79;100.00;100265.53;4974017;28;20109;-69
2023/06/19 04:38:48;;;;;;;10.75;8.35;;;;;;;18.84;100.00;100258.56;4973753;28;20035;-69
2023/06/19 04:41:13;;;;;;;10.70;8.27;;;;;;;18.87;100.00;100261.16;4973975;28;20035;-68
2023/06/19 04:43:41;;;;;;;10.75;8.77;;;;;;;18.92;100.00;100276.88;4973566;28;20085;-68
2023/06/19 04:46:07;;;;;;;13.43;8.63;;;;;;;18.94;100.00;100264.69;4974219;28;20027;-69
2023/06/19 04:48:35;;;;;;;11.30;8.50;;;;;;;19.03;100.00;100269.03;4973816;28;20034;-68
2023/06/19 04:51:01;;;;;;;11.55;8.73;;;;;;;19.26;100.00;100281.22;4973817;28;20033;-68
2023/06/19 04:53:27;;;;;;;11.02;8.38;;;;;;;19.33;100.00;100273.34;4973673;28;20027;-69
2023/06/19 04:55:54;;;;;;;11.20;8.55;;;;;;;19.48;100.00;100280.28;4973855;28;20031;-68
2023/06/19 04:58:20;;;;;;;10.65;7.88;;;;;;;19.55;100.00;100279.41;4973490;28;20043;-68
2023/06/19 05:00:50;;;;;;;11.45;8.70;;;;;;;19.71;100.00;100282.84;4974039;28;20034;-68
2023/06/19 05:03:17;;;;;;;9.50;8.50;;;;;;;19.88;100.00;100289.78;4973341;28;20027;-68
2023/06/19 05:05:43;;;;;;;11.10;8.18;;;;;;;19.99;100.00;100292.38;4973610;28;20118;-68
2023/06/19 05:08:09;;;;;;;12.95;8.43;;;;;;;19.95;100.00;100267.94;4963244;28;20127;-68
2023/06/19 05:10:34;;;;;;;9.70;7.85;;;;;;;20.29;100.00;100295.69;4963484;28;20473;-68
2023/06/19 05:13:01;;;;;;;11.95;8.02;;;;;;;20.43;100.00;100304.34;4973213;28;20053;-67
2023/06/19 05:15:27;;;;;;;9.00;7.95;;;;;;;20.34;100.00;100281.66;4970875;28;20512;-69
2023/06/19 05:17:52;;;;;;;8.95;7.90;;;;;;;20.50;100.00;100302.56;4963109;28;20126;-68
2023/06/19 05:20:18;;;;;;;9.90;8.52;;;;;;;20.52;100.00;100298.16;4972972;28;20026;-68
2023/06/19 05:22:43;;;;;;;11.40;8.77;;;;;;;20.63;100.00;100298.09;4972446;28;20520;-68
2023/06/19 05:25:09;;;;;;;10.77;8.60;;;;;;;20.76;100.00;100288.41;4973183;28;20086;-68
2023/06/19 05:27:34;;;;;;;10.15;8.48;;;;;;;20.72;100.00;100261.31;4973229;28;20469;-67
2023/06/19 05:30:00;;;;;;;9.73;8.73;;;;;;;20.91;100.00;100271.66;4972376;28;20077;-68
2023/06/19 05:32:25;;;;;;;10.90;9.02;;;;;;;21.13;100.00;100283.72;4972706;28;20033;-68
2023/06/19 05:34:50;;;;;;;9.65;8.73;;;;;;;21.22;100.00;100289.75;4972733;28;20030;-68
2023/06/19 05:37:16;;;;;;;12.35;8.77;;;;;;;21.33;100.00;100293.13;4972279;28;20042;-68
2023/06/19 05:39:42;;;;;;;10.38;8.38;;;;;;;21.42;100.00;100300.94;4972901;28;20041;-68
2023/06/19 05:42:07;;;;;;;9.48;8.18;;;;;;;21.54;100.00;100299.06;4972494;28;20034;-68
2023/06/19 05:44:33;;;;;;;10.93;8.32;;;;;;;21.40;100.00;100276.44;4972856;28;20477;-69
2023/06/19 05:46:58;;;;;;;10.63;8.30;;;;;;;21.45;100.00;100271.13;4972192;28;20544;-69
2023/06/19 05:49:23;;;;;;;10.10;8.80;;;;;;;21.75;100.00;100305.84;4972551;28;20521;-68
2023/06/19 05:51:49;;;;;;;9.25;7.97;;;;;;;21.78;100.00;100298.81;4972350;28;20023;-69
2023/06/19 05:54:14;;;;;;;8.52;7.50;;;;;;;21.94;100.00;100303.84;4972460;28;20066;-68
2023/06/19 05:56:40;;;;;;;10.80;8.05;;;;;;;22.04;100.00;100305.47;4972139;28;20088;-69
2023/06/19 05:59:05;;;;;;;9.35;7.55;;;;;;;22.09;100.00;100302.78;4954136;28;20047;-68
2023/06/19 06:01:31;;;;;;;10.85;7.10;;;;;;;22.25;100.00;100306.94;4972108;28;20370;-67
2023/06/19 06:03:56;;;;;;;10.80;7.25;;;;;;;22.28;100.00;100313.91;4972119;28;20031;-67
2023/06/19 06:06:25;;;;;;;10.68;7.32;;;;;;;22.17;100.00;100287.78;4972055;28;20053;-67
2023/06/19 06:08:51;;;;;;;9.03;7.17;;;;;;;22.16;100.00;100280.78;4972028;28;20038;-67
2023/06/19 06:11:17;;;;;;;13.02;7.55;;;;;;;22.37;100.00;100311.22;4972363;28;20274;-67
2023/06/19 06:13:43;;;;;;;8.35;7.07;;;;;;;22.42;100.00;100309.38;4972335;28;20485;-67
2023/06/19 06:16:08;;;;;;;8.07;7.18;;;;;;;22.52;100.00;100327.63;4972319;28;20039;-68
2023/06/19 06:18:34;;;;;;;8.20;7.28;;;;;;;22.58;100.00;100320.53;4956656;28;20502;-67
2023/06/19 06:20:59;;;;;;;9.70;7.85;;;;;;;22.65;100.00;100320.44;4952447;28;20077;-68
2023/06/19 06:23:25;;;;;;;7.57;6.75;;;;;;;22.74;100.00;100322.94;4953183;28;20042;-67
2023/06/19 06:25:51;;;;;;;9.25;6.63;;;;;;;22.83;100.00;100308.75;4953023;28;20046;-67
2023/06/19 06:28:17;;;;;;;9.52;7.90;;;;;;;22.84;100.00;100290.31;4952548;28;20524;-67
2023/06/19 06:30:43;;;;;;;8.50;6.75;;;;;;;23.10;100.00;100321.47;4952694;28;20488;-67
2023/06/19 06:33:08;;;;;;;11.30;7.07;;;;;;;23.23;100.00;100316.03;4952400;28;20031;-67
2023/06/19 06:35:35;;;;;;;8.75;7.05;;;;;;;23.24;100.00;100323.00;4959445;28;20038;-67
2023/06/19 06:38:01;;;;;;;9.05;7.68;;;;;;;23.29;100.00;100320.28;4963011;28;20448;-67
2023/06/19 06:40:27;;;;;;;9.45;7.32;;;;;;;23.31;100.00;100318.50;4965741;28;20059;-67
2023/06/19 06:42:53;;;;;;;8.82;7.55;;;;;;;23.38;100.00;100325.41;4967746;28;20142;-66
2023/06/19 06:45:19;;;;;;;9.75;6.95;;;;;;;23.41;100.00;100325.34;4971224;28;20018;-67
2023/06/19 06:47:45;;;;;;;8.32;7.15;;;;;;;23.36;100.00;100314.03;4971160;28;20039;-67
2023/06/19 06:50:10;;;;;;;9.32;7.40;;;;;;;23.49;100.00;100310.25;4970978;28;20084;-67
2023/06/19 06:52:35;;;;;;;10.02;7.20;;;;;;;23.60;100.00;100325.84;4971112;28;20035;-67
2023/06/19 06:55:01;;;;;;;8.95;7.40;;;;;;;23.48;100.00;100312.91;4971442;28;20022;-67
2023/06/19 06:57:26;;;;;;;9.05;6.93;;;;;;;23.59;100.00;100322.34;4971103;28;20041;-67
2023/06/19 06:59:52;;;;;;;10.40;7.70;;;;;;;23.68;100.00;100317.81;4970767;28;20038;-67
2023/06/19 07:02:17;;;;;;;7.65;6.60;;;;;;;23.52;100.00;100286.47;4971519;28;20081;-67
2023/06/19 07:04:42;;;;;;;11.50;7.40;;;;;;;23.83;100.00;100322.75;4953290;28;20038;-68
2023/06/19 07:07:08;;;;;;;7.63;6.82;;;;;;;23.96;100.00;100326.03;4971272;28;20022;-67
2023/06/19 07:09:34;;;;;;;8.52;6.72;;;;;;;24.02;100.00;100328.56;4952834;28;20041;-67
2023/06/19 07:12:01;;;;;;;9.05;6.65;;;;;;;24.12;100.00;100333.66;4971273;28;20117;-67
2023/06/19 07:14:27;;;;;;;7.95;6.00;;;;;;;24.18;100.00;100336.16;4970928;28;20038;-67
2023/06/19 07:16:53;;;;;;;8.07;5.95;;;;;;;24.15;100.00;100325.66;4953910;28;20051;-67
2023/06/19 07:19:18;;;;;;;12.90;6.70;;;;;;;24.23;100.00;100331.66;4970674;28;20031;-68
2023/06/19 07:21:44;;;;;;;8.02;6.32;;;;;;;24.30;100.00;100338.53;4970911;28;20606;-67
2023/06/19 07:24:09;;;;;;;9.02;6.55;;;;;;;24.37;100.00;100340.13;4970936;28;20122;-67
2023/06/19 07:26:35;;;;;;;7.07;6.28;;;;;;;24.41;100.00;100327.72;4971142;28;20426;-67
2023/06/19 07:29:00;;;;;;;7.38;6.57;;;;;;;24.49;100.00;100324.91;4971063;28;20062;-67
2023/06/19 07:31:26;;;;;;;8.18;6.38;;;;;;;24.63;100.00;100333.38;4971009;28;20499;-67
2023/06/19 07:33:51;;;;;;;9.27;6.70;;;;;;;24.74;100.00;100335.78;4970459;28;20029;-68
2023/06/19 07:36:17;;;;;;;10.88;7.00;;;;;;;24.70;100.00;100337.63;4971338;28;20039;-68
2023/06/19 07:38:43;;;;;;;11.35;7.00;;;;;;;24.76;100.00;100338.38;4970452;28;20114;-67
2023/06/19 07:41:10;;;;;;;9.95;6.90;;;;;;;24.87;100.00;100336.34;4970854;28;20027;-67
2023/06/19 07:43:37;;;;;;;9.80;7.32;;;;;;;24.96;100.00;100332.63;4970424;28;20085;-67
2023/06/19 07:46:03;;;;;;;8.20;7.30;;;;;;;25.04;100.00;100328.88;4970781;28;20038;-68
2023/06/19 07:48:28;;;;;;;10.50;6.70;;;;;;;25.08;100.00;100334.09;4970281;28;20038;-68
2023/06/19 07:50:53;;;;;;;8.43;6.00;;;;;;;25.13;99.85;100340.13;4970906;28;20035;-67
2023/06/19 07:53:19;;;;;;;7.65;6.18;;;;;;;25.26;98.34;100341.53;4970214;28;20481;-68
2023/06/19 07:55:44;;;;;;;7.05;5.55;;;;;;;25.32;100.00;100341.38;4957560;28;20037;-67
2023/06/19 07:58:10;;;;;;;9.13;4.82;;;;;;;25.01;97.56;100302.56;4974281;28;20436;-68
2023/06/19 08:00:35;;;;;;;6.70;4.82;;;;;;;25.16;97.56;100356.75;4974644;28;20030;-67
2023/06/19 08:03:01;;;;;;;6.18;4.68;;;;;;;25.07;98.34;100340.28;4974214;28;20038;-67
2023/06/19 08:05:26;;;;;;;11.10;5.82;;;;;;;24.97;99.98;100329.06;4974391;28;20477;-67
2023/06/19 08:07:52;;;;;;;8.32;4.75;;;;;;;24.99;100.00;100348.41;4974367;28;20532;-68
2023/06/19 08:10:17;;;;;;;6.07;3.97;;;;;;;25.07;97.82;100345.56;4940235;28;20485;-67
2023/06/19 08:12:44;;;;;;;5.38;4.30;;;;;;;25.25;94.79;100350.38;4974113;28;20023;-67
2023/06/19 08:15:11;;;;;;;6.97;4.18;;;;;;;25.48;94.71;100338.34;4974465;28;20035;-67
2023/06/19 08:17:36;;;;;;;6.68;3.92;;;;;;;25.70;92.71;100343.06;4973599;28;20065;-67
2023/06/19 08:20:05;;;;;;;6.13;3.90;;;;;;;25.87;93.07;100340.81;4974360;28;20027;-67
2023/06/19 08:22:30;;;;;;;7.13;4.50;;;;;;;25.95;92.39;100346.72;4974056;28;20548;-67
2023/06/19 08:24:56;;;;;;;6.18;4.40;;;;;;;25.98;92.81;100346.66;4973899;28;20050;-68
2023/06/19 08:27:21;;;;;;;5.70;4.53;;;;;;;25.99;94.59;100342.22;4974432;28;20049;-68
2023/06/19 08:29:47;;;;;;;11.05;4.82;;;;;;;25.93;95.31;100353.88;4974072;28;20054;-68
2023/06/19 08:32:12;;;;;;;6.47;4.30;;;;;;;25.87;92.25;100343.47;4973555;28;20031;-68
2023/06/19 08:34:38;;;;;;;6.80;4.75;;;;;;;25.87;94.40;100351.41;4973818;28;20034;-68
2023/06/19 08:37:04;;;;;;;7.18;5.00;;;;;;;25.78;93.66;100356.94;4973965;28;20077;-67
2023/06/19 08:39:30;;;;;;;8.70;4.65;;;;;;;25.68;95.62;100357.19;4973797;28;20062;-68
2023/06/19 08:41:56;;;;;;;9.38;4.80;;;;;;;25.66;93.67;100361.66;4973737;28;20031;-68
2023/06/19 08:44:21;;;;;;;7.97;4.57;;;;;;;25.64;94.66;100360.81;4973901;28;20039;-68
2023/06/19 08:46:47;;;;;;;7.88;4.40;;;;;;;25.72;94.10;100360.63;4973362;28;20505;-68
2023/06/19 08:49:13;;;;;;;4.90;4.40;;;;;;;25.81;94.24;100354.22;4973535;28;20527;-68
2023/06/19 08:51:40;;;;;;;8.43;4.65;;;;;;;26.00;95.31;100360.69;4973473;28;20081;-68
2023/06/19 08:54:07;;;;;;;7.20;4.57;;;;;;;26.03;92.02;100345.66;4972880;28;20532;-68
2023/06/19 08:56:34;;;;;;;7.68;5.00;;;;;;;26.19;93.45;100365.47;4973497;28;20405;-67
2023/06/19 08:59:14;;;;;;;5.97;4.50;;;;;;;26.25;91.75;100360.00;4973277;28;20023;-67
2023/06/19 09:01:40;;;;;;;6.18;4.72;;;;;;;26.08;94.71;100330.53;4973311;28;21108;-67
2023/06/19 09:04:14;;;;;;;6.43;4.28;;;;;;;26.14;91.77;100362.97;4973190;28;20034;-68
2023/06/19 09:06:50;;;;;;;5.10;4.57;;;;;;;26.24;92.59;100368.84;4971927;28;20034;-67
2023/06/19 09:09:17;;;;;;;9.48;4.38;;;;;;;26.29;89.18;100356.38;4973177;28;20031;-67
2023/06/19 09:11:43;;;;;;;5.93;4.28;;;;;;;26.33;89.54;100351.81;4973041;28;20891;-67
2023/06/19 09:14:11;;;;;;;6.18;4.28;;;;;;;26.42;91.23;100361.28;4973109;28;20034;-67
2023/06/19 09:16:41;;;;;;;4.93;4.07;;;;;;;26.66;88.75;100351.69;4968784;28;20046;-67
2023/06/19 09:19:07;;;;;;;6.80;4.75;;;;;;;26.79;87.55;100336.31;4957319;28;20042;-68
2023/06/19 09:21:36;;;;;;;5.78;4.35;;;;;;;26.91;89.67;100340.34;4970344;28;20027;-68
2023/06/19 09:24:06;;;;;;;5.40;4.28;;;;;;;26.95;89.94;100345.50;4972886;28;20106;-67
2023/06/19 09:26:31;;;;;;;5.80;4.75;;;;;;;27.18;91.31;100341.19;4955245;28;20102;-67
2023/06/19 09:28:57;;;;;;;7.55;4.70;;;;;;;27.25;92.19;100316.22;4955615;28;20126;-68
2023/06/19 09:31:33;;;;;;;6.10;4.40;;;;;;;27.54;86.47;100343.50;4973062;28;20033;-68
2023/06/19 09:33:58;;;;;;;5.78;4.38;;;;;;;27.69;84.32;100338.56;4972952;28;20039;-68
2023/06/19 09:36:26;;;;;;;6.85;4.30;;;;;;;27.84;83.69;100339.78;4972791;28;20034;-68
2023/06/19 09:38:52;;;;;;;6.32;4.47;;;;;;;27.83;84.73;100333.63;4971625;28;20421;-68
2023/06/19 09:41:19;;;;;;;7.32;4.22;;;;;;;27.87;83.31;100340.53;4972075;28;20537;-68
2023/06/19 09:43:49;;;;;;;8.27;5.30;;;;;;;27.79;88.34;100339.97;4968993;28;20070;-68
2023/06/19 09:46:16;;;;;;;11.93;5.70;;;;;;;27.47;88.18;100315.47;4938658;28;21124;-68
2023/06/19 09:48:46;;;;;;;8.00;5.13;;;;;;;27.56;88.59;100338.16;4968084;28;20608;-68
2023/06/19 09:51:18;;;;;;;;;;;;;;;27.69;86.79;100334.13;4961266;28;20030;-68
2023/06/19 09:53:45;;;;;;;10.38;4.93;;;;;;;27.68;87.30;100305.03;4957262;28;19921;-69
2023/06/19 09:56:12;;;;;;;9.80;4.88;;;;;;;27.91;85.62;100326.25;4961503;28;20045;-68
2023/06/19 09:58:39;;;;;;;8.52;5.25;;;;;;;28.15;85.21;100315.66;4963474;28;20404;-68
2023/06/19 10:01:06;;;;;;;9.90;4.28;;;;;;;28.25;84.83;100319.66;4954808;28;20118;-68
2023/06/19 10:03:36;;;;;;;11.93;5.55;;;;;;;28.42;85.05;100312.81;4956682;28;20047;-69
2023/06/19 10:06:03;;;;;;;8.07;4.47;;;;;;;28.46;86.47;100303.78;4953420;28;20031;-69
2023/06/19 10:08:39;;;;;;;7.85;5.20;;;;;;;28.42;83.15;100312.81;4972295;28;20031;-68
2023/06/19 10:11:05;;;;;;;8.48;4.88;;;;;;;28.19;82.58;100309.28;4963293;28;20412;-69
2023/06/19 10:13:36;;;;;;;9.57;5.15;;;;;;;28.17;83.26;100319.09;4959465;28;20030;-68
2023/06/19 10:16:02;;;;;;;11.13;4.93;;;;;;;27.93;82.92;100276.63;4971654;28;20110;-68
2023/06/19 10:18:28;;;;;;;14.02;5.63;;;;;;;28.10;83.32;100306.97;4962537;28;20051;-68
2023/06/19 10:20:56;;;;;;;17.38;6.63;;;;;;;28.03;83.11;100286.91;4952633;28;20106;-69
2023/06/19 10:23:23;;;;;;;9.70;5.60;;;;;;;28.03;81.06;100290.41;4950452;28;20665;-69
2023/06/19 10:25:59;;;;;;;10.65;5.55;;;;;;;27.94;79.15;100304.03;4952946;28;20023;-69
2023/06/19 10:28:24;;;;;;;12.50;5.50;;;;;;;27.88;82.22;100283.91;4959954;28;20122;-68
2023/06/19 10:30:57;;;;;;;12.82;6.28;;;;;;;27.91;80.61;100275.84;4964944;28;20106;-70
2023/06/19 10:33:25;;;;;;;13.27;5.60;;;;;;;28.35;86.64;100292.75;4964745;28;20082;-70
2023/06/19 10:35:51;;;;;;;6.07;4.32;;;;;;;28.67;82.09;100290.59;4952848;28;20027;-70
2023/06/19 10:38:17;;;;;;;8.10;4.35;;;;;;;28.94;77.04;100282.44;4952267;28;20114;-68
2023/06/19 10:40:44;;;;;;;5.82;4.47;;;;;;;29.21;81.60;100270.59;4959154;28;20082;-69
2023/06/19 10:43:11;;;;;;;7.85;4.13;;;;;;;29.24;73.02;100276.72;4952032;28;20041;-69
2023/06/19 10:45:36;;;;;;;5.95;4.20;;;;;;;29.34;75.08;100273.59;4949947;28;20497;-69
2023/06/19 10:48:03;;;;;;;6.35;4.03;;;;;;;29.41;74.90;100271.53;4956495;28;20034;-70
2023/06/19 10:50:29;;;;;;;5.68;4.40;;;;;;;29.33;67.57;100236.44;4951893;28;20039;-69
2023/06/19 10:52:54;;;;;;;6.93;4.63;;;;;;;29.45;69.68;100275.78;4951915;28;20034;-69
2023/06/19 10:55:21;;;;;;;5.25;4.32;;;;;;;29.46;68.98;100274.84;4963104;28;20038;-69
2023/06/19 10:57:47;;;;;;;7.40;4.47;;;;;;;29.26;66.36;100266.84;4946388;28;20035;-69
2023/06/19 11:00:26;;;;;;;6.47;4.78;;;;;;;29.14;72.45;100270.94;4951683;28;20023;-69
2023/06/19 11:02:51;;;;;;;6.47;4.13;;;;;;;28.96;67.94;100267.25;4958841;28;20031;-70
2023/06/19 11:05:20;;;;;;;6.93;4.18;;;;;;;28.63;68.24;100236.72;4951743;28;20039;-71
2023/06/19 11:07:54;;;;;;;6.70;4.25;;;;;;;28.62;68.83;100261.53;4952119;28;20042;-70
2023/06/19 11:10:22;;;;;;;6.03;4.25;;;;;;;28.56;70.18;100275.06;4951853;28;20043;-71